createdAt,value
2018-04-15T00:01:13.321Z,1.53
2018-04-15T00:03:41.705Z,1.53
2018-04-15T00:06:10.090Z,1.43
2018-04-15T00:08:38.828Z,2.80
2018-04-15T00:11:08.177Z,1.47
2018-04-15T00:13:37.562Z,1.20
2018-04-15T00:16:05.921Z,2.67
2018-04-15T00:18:34.390Z,1.30
2018-04-15T00:21:02.718Z,1.37
2018-04-15T00:23:31.028Z,1.27
2018-04-15T00:25:59.408Z,1.40
2018-04-15T00:28:28.887Z,2.50
2018-04-15T00:30:57.340Z,1.43
2018-04-15T00:33:25.742Z,2.03
2018-04-15T00:35:54.114Z,1.63
2018-04-15T00:38:22.982Z,1.10
2018-04-15T00:40:51.297Z,1.00
2018-04-15T00:43:20.500Z,1.30
2018-04-15T00:45:49.002Z,1.20
2018-04-15T00:48:18.192Z,1.40
2018-04-15T00:50:46.581Z,2.27
2018-04-15T00:53:14.917Z,2.07
2018-04-15T00:55:44.195Z,1.40
2018-04-15T00:58:12.486Z,1.47
2018-04-15T01:00:40.824Z,1.47
2018-04-15T01:03:09.138Z,1.30
2018-04-15T01:05:37.470Z,1.00
2018-04-15T01:08:06.685Z,1.60
2018-04-15T01:10:35.026Z,1.83
2018-04-15T01:13:03.356Z,1.20
2018-04-15T01:15:31.685Z,1.10
2018-04-15T01:18:00.035Z,3.37
2018-04-15T01:20:28.390Z,2.17
2018-04-15T01:22:58.054Z,1.13
2018-04-15T01:25:26.974Z,1.10
2018-04-15T01:27:55.339Z,1.07
2018-04-15T01:30:23.659Z,1.20
2018-04-15T01:32:52.891Z,0.90
2018-04-15T01:35:21.210Z,1.33
2018-04-15T01:37:49.977Z,1.13
2018-04-15T01:40:19.257Z,1.77
2018-04-15T01:42:47.663Z,1.07
2018-04-15T01:45:16.014Z,0.90
2018-04-15T01:47:44.314Z,1.60
2018-04-15T01:50:12.968Z,1.30
2018-04-15T01:52:42.178Z,1.13
2018-04-15T01:55:10.558Z,0.90
2018-04-15T01:57:39.062Z,2.27
2018-04-15T02:00:07.371Z,1.13
2018-04-15T02:02:35.954Z,4.40
2018-04-15T02:05:04.371Z,3.50
2018-04-15T02:07:32.683Z,2.97
2018-04-15T02:10:00.997Z,2.47
2018-04-15T02:12:29.325Z,0.90
2018-04-15T02:14:57.658Z,3.13
2018-04-15T02:17:29.402Z,1.40
2018-04-15T02:19:57.769Z,1.10
2018-04-15T02:22:26.633Z,3.20
2018-04-15T02:24:55.316Z,1.20
2018-04-15T02:27:23.672Z,1.73
2018-04-15T02:29:52.798Z,2.70
2018-04-15T02:32:21.402Z,1.90
2018-04-15T02:34:49.761Z,1.10
2018-04-15T02:37:19.035Z,3.47
2018-04-15T02:39:48.871Z,2.00
2018-04-15T02:42:17.206Z,1.37
2018-04-15T02:44:45.501Z,1.20
2018-04-15T02:47:13.821Z,1.80
2018-04-15T02:49:42.131Z,1.13
2018-04-15T02:52:10.526Z,1.93
2018-04-15T02:54:38.840Z,2.40
2018-04-15T02:57:07.175Z,1.47
2018-04-15T02:59:35.479Z,2.10
2018-04-15T03:02:04.531Z,1.47
2018-04-15T03:04:32.852Z,1.80
2018-04-15T03:07:01.214Z,1.47
2018-04-15T03:09:30.449Z,3.43
2018-04-15T03:11:59.237Z,1.83
2018-04-15T03:14:28.398Z,1.77
2018-04-15T03:16:57.580Z,1.27
2018-04-15T03:19:25.874Z,2.10
2018-04-15T03:21:55.150Z,3.90
2018-04-15T03:24:24.214Z,1.27
2018-04-15T03:26:52.542Z,2.17
2018-04-15T03:29:20.889Z,4.33
2018-04-15T03:31:50.148Z,1.50
2018-04-15T03:34:18.554Z,1.40
2018-04-15T03:36:46.901Z,1.87
2018-04-15T03:39:15.187Z,2.07
2018-04-15T03:41:43.506Z,2.33
2018-04-15T03:44:11.827Z,1.67
2018-04-15T03:46:40.137Z,1.63
2018-04-15T03:49:08.430Z,1.10
2018-04-15T03:51:37.037Z,1.97
2018-04-15T03:54:05.345Z,1.63
2018-04-15T03:56:34.782Z,1.53
2018-04-15T03:59:03.560Z,2.00
2018-04-15T04:01:32.059Z,2.03
2018-04-15T04:04:00.424Z,1.80
2018-04-15T04:06:29.271Z,1.83
2018-04-15T04:08:57.596Z,1.27
2018-04-15T04:11:26.749Z,1.63
2018-04-15T04:13:55.041Z,1.33
2018-04-15T04:16:23.334Z,1.37
2018-04-15T04:19:03.477Z,1.37
2018-04-15T04:21:43.913Z,1.53
2018-04-15T04:24:24.321Z,1.40
2018-04-15T04:26:52.661Z,2.70
2018-04-15T04:29:20.974Z,1.30
2018-04-15T04:31:50.090Z,1.37
2018-04-15T04:34:19.195Z,1.87
2018-04-15T04:36:47.557Z,1.73
2018-04-15T04:39:15.897Z,2.13
2018-04-15T04:41:44.779Z,1.40
2018-04-15T04:44:13.113Z,1.93
2018-04-15T04:46:41.416Z,1.77
2018-04-15T04:49:30.824Z,2.27
2018-04-15T04:51:59.111Z,0.97
2018-04-15T04:54:27.488Z,1.20
2018-04-15T04:56:55.812Z,1.30
2018-04-15T04:59:24.945Z,1.27
2018-04-15T05:01:53.240Z,1.83
2018-04-15T05:04:21.626Z,1.80
2018-04-15T05:06:50.781Z,1.93
2018-04-15T05:09:19.110Z,1.23
2018-04-15T05:11:54.746Z,1.47
2018-04-15T05:14:23.924Z,2.23
2018-04-15T05:16:52.220Z,2.30
2018-04-15T05:19:20.840Z,1.97
2018-04-15T05:21:49.141Z,1.33
2018-04-15T05:24:25.448Z,1.27
2018-04-15T05:26:53.750Z,2.67
2018-04-15T05:29:22.069Z,1.70
2018-04-15T05:31:51.160Z,1.17
2018-04-15T05:34:21.036Z,2.00
2018-04-15T05:36:50.315Z,1.47
2018-04-15T05:39:18.606Z,1.37
2018-04-15T05:41:46.948Z,1.40
2018-04-15T05:44:15.271Z,1.87
2018-04-15T05:46:43.634Z,1.33
2018-04-15T05:49:12.616Z,1.50
2018-04-15T05:51:40.930Z,1.40
2018-04-15T05:54:09.319Z,1.43
2018-04-15T05:56:37.635Z,1.63
2018-04-15T05:59:06.713Z,1.10
2018-04-15T06:01:35.829Z,1.63
2018-04-15T06:04:04.276Z,1.37
2018-04-15T06:06:32.714Z,1.70
2018-04-15T06:09:21.784Z,1.30
2018-04-15T06:11:50.169Z,1.30
2018-04-15T06:14:18.483Z,1.20
2018-04-15T06:16:46.803Z,1.30
2018-04-15T06:19:15.217Z,1.43
2018-04-15T06:21:43.875Z,2.77
2018-04-15T06:24:13.878Z,1.43
2018-04-15T06:26:42.277Z,2.40
2018-04-15T06:29:10.930Z,1.67
2018-04-15T06:31:43.110Z,1.10
2018-04-15T06:34:11.434Z,1.17
2018-04-15T06:36:40.625Z,3.47
2018-04-15T06:39:08.902Z,1.33
2018-04-15T06:41:37.275Z,1.30
2018-04-15T06:44:05.573Z,1.30
2018-04-15T06:46:33.949Z,1.50
2018-04-15T06:49:02.256Z,2.20
2018-04-15T06:51:30.584Z,2.27
2018-04-15T06:54:00.797Z,1.90
2018-04-15T06:56:31.717Z,1.33
2018-04-15T06:59:00.793Z,2.37
2018-04-15T07:01:29.175Z,3.00
2018-04-15T07:03:57.456Z,2.20
2018-04-15T07:06:25.747Z,1.30
2018-04-15T07:08:54.077Z,1.43
2018-04-15T07:11:22.387Z,2.40
2018-04-15T07:13:51.782Z,0.97
2018-04-15T07:16:20.880Z,2.27
2018-04-15T07:18:49.201Z,1.93
2018-04-15T07:21:17.543Z,2.70
2018-04-15T07:23:45.849Z,1.57
2018-04-15T07:26:14.159Z,1.53
2018-04-15T07:28:42.474Z,2.63
2018-04-15T07:31:10.802Z,1.77
2018-04-15T07:33:39.199Z,1.10
2018-04-15T07:36:08.314Z,2.47
2018-04-15T07:38:36.655Z,2.93
2018-04-15T07:41:04.947Z,0.93
2018-04-15T07:43:33.271Z,1.60
2018-04-15T07:46:02.332Z,1.63
2018-04-15T07:48:30.667Z,1.23
2018-04-15T07:50:59.014Z,1.20
2018-04-15T07:53:27.374Z,1.37
2018-04-15T07:55:56.085Z,2.50
2018-04-15T07:58:24.401Z,3.17
2018-04-15T08:00:52.701Z,1.57
2018-04-15T08:03:21.073Z,1.27
2018-04-15T08:05:49.424Z,1.20
2018-04-15T08:08:17.737Z,0.90
2018-04-15T08:10:46.089Z,1.37
2018-04-15T08:13:15.010Z,7.70
2018-04-15T08:16:02.738Z,5.23
2018-04-15T08:18:31.038Z,4.23
2018-04-15T08:20:59.459Z,9.83
2018-04-15T08:23:27.787Z,10.73
2018-04-15T08:25:56.116Z,7.37
2018-04-15T08:28:25.485Z,3.70
2018-04-15T08:30:53.773Z,3.37
2018-04-15T08:33:22.125Z,1.97
2018-04-15T08:35:50.434Z,4.23
2018-04-15T08:38:19.105Z,2.67
2018-04-15T08:40:47.408Z,3.17
2018-04-15T08:43:15.822Z,2.07
2018-04-15T08:45:44.100Z,2.23
2018-04-15T08:48:12.404Z,4.63
2018-04-15T08:50:40.730Z,2.90
2018-04-15T08:53:09.815Z,2.63
2018-04-15T08:55:38.189Z,2.63
2018-04-15T08:58:06.485Z,4.23
2018-04-15T09:00:47.098Z,3.63
2018-04-15T09:03:15.405Z,2.87
2018-04-15T09:05:45.429Z,2.47
2018-04-15T09:08:13.740Z,2.07
2018-04-15T09:10:42.097Z,3.07
2018-04-15T09:13:10.402Z,3.40
2018-04-15T09:15:38.727Z,2.37
2018-04-15T09:18:07.042Z,2.00
2018-04-15T09:20:35.365Z,2.13
2018-04-15T09:23:05.685Z,2.93
2018-04-15T09:25:35.134Z,3.53
2018-04-15T09:28:04.166Z,3.63
2018-04-15T09:33:37.579Z,1.97
2018-04-15T09:36:05.887Z,2.30
2018-04-15T09:38:34.196Z,2.90
2018-04-15T09:41:03.969Z,2.53
2018-04-15T09:43:32.253Z,2.47
2018-04-15T09:46:00.565Z,2.00
2018-04-15T09:48:28.910Z,2.27
2018-04-15T09:50:57.571Z,2.37
2018-04-15T09:53:25.854Z,1.80
2018-04-15T09:55:54.182Z,1.83
2018-04-15T09:58:22.485Z,2.20
2018-04-15T10:00:50.811Z,3.13
2018-04-15T10:03:19.138Z,1.93
2018-04-15T10:05:47.462Z,2.20
2018-04-15T10:08:15.783Z,3.43
2018-04-15T10:10:44.858Z,3.67
2018-04-15T10:13:13.925Z,2.00
2018-04-15T10:15:42.249Z,3.13
2018-04-15T10:18:10.545Z,2.17
2018-04-15T10:20:38.924Z,2.73
2018-04-15T10:23:07.213Z,2.47
2018-04-15T10:25:35.590Z,8.63
2018-04-15T10:28:03.884Z,11.40
2018-04-15T10:30:32.210Z,5.33
2018-04-15T10:33:01.274Z,4.30
2018-04-15T10:35:29.605Z,3.37
2018-04-15T10:37:57.941Z,4.70
2018-04-15T10:40:26.265Z,6.50
2018-04-15T10:42:54.697Z,1.70
2018-04-15T10:45:23.016Z,2.20
2018-04-15T10:47:51.354Z,2.30
2018-04-15T10:50:19.687Z,2.70
2018-04-15T10:53:02.247Z,6.43
2018-04-15T10:55:30.906Z,1.70
2018-04-15T10:57:59.203Z,3.63
2018-04-15T11:00:27.526Z,6.97
2018-04-15T11:02:55.828Z,9.13
2018-04-15T11:05:24.209Z,3.00
2018-04-15T11:07:52.546Z,4.50
2018-04-15T11:10:21.202Z,3.33
2018-04-15T11:12:49.491Z,4.40
2018-04-15T11:15:23.819Z,3.07
2018-04-15T11:17:52.163Z,5.37
2018-04-15T11:20:20.481Z,2.77
2018-04-15T11:22:48.777Z,3.77
2018-04-15T11:25:18.201Z,3.07
2018-04-15T11:27:47.306Z,3.53
2018-04-15T11:30:16.574Z,2.70
2018-04-15T11:32:44.890Z,2.17
2018-04-15T11:35:13.259Z,3.87
2018-04-15T11:37:41.562Z,5.73
2018-04-15T11:40:09.881Z,3.50
2018-04-15T11:42:38.196Z,2.70
2018-04-15T11:45:06.493Z,3.30
2018-04-15T11:47:34.818Z,2.73
2018-04-15T11:50:03.134Z,5.50
2018-04-15T11:52:31.463Z,5.90
2018-04-15T11:55:00.350Z,8.97
2018-04-15T11:57:28.657Z,7.33
2018-04-15T11:59:56.981Z,6.07
2018-04-15T12:02:25.306Z,3.97
2018-04-15T12:04:53.650Z,3.77
2018-04-15T12:07:35.154Z,6.17
2018-04-15T12:10:03.441Z,8.27
2018-04-15T12:12:31.766Z,8.37
2018-04-15T12:15:00.058Z,8.47
2018-04-15T12:17:28.373Z,4.10
2018-04-15T12:19:56.657Z,5.23
2018-04-15T12:22:24.986Z,6.73
2018-04-15T12:24:53.296Z,13.53
2018-04-15T12:27:21.654Z,12.70
2018-04-15T12:29:49.962Z,6.67
2018-04-15T12:32:18.290Z,8.33
2018-04-15T12:34:46.590Z,8.07
2018-04-15T12:37:14.919Z,11.73
2018-04-15T12:39:43.220Z,11.90
2018-04-15T12:42:11.533Z,9.87
2018-04-15T12:44:39.834Z,11.20
2018-04-15T12:47:08.159Z,9.77
2018-04-15T12:49:36.449Z,8.30
2018-04-15T12:52:04.769Z,7.97
2018-04-15T12:54:33.098Z,6.03
2018-04-15T12:57:01.466Z,5.70
2018-04-15T12:59:29.769Z,4.80
2018-04-15T13:01:58.841Z,4.43
2018-04-15T13:04:27.172Z,3.57
2018-04-15T13:06:55.498Z,3.30
2018-04-15T13:09:24.118Z,3.50
2018-04-15T13:11:52.437Z,3.87
2018-04-15T13:14:20.729Z,2.33
2018-04-15T13:16:49.093Z,3.13
2018-04-15T13:19:17.362Z,2.30
2018-04-15T13:21:45.697Z,2.33
2018-04-15T13:24:14.388Z,2.53
2018-04-15T13:26:42.710Z,4.23
2018-04-15T13:29:11.785Z,2.70
2018-04-15T13:31:40.120Z,1.83
2018-04-15T13:34:08.442Z,2.20
2018-04-15T13:36:36.770Z,1.30
2018-04-15T13:39:08.050Z,2.27
2018-04-15T13:41:36.406Z,2.33
2018-04-15T13:44:04.697Z,3.60
2018-04-15T13:46:33.010Z,4.60
2018-04-15T13:49:02.920Z,2.13
2018-04-15T13:51:31.221Z,2.03
2018-04-15T13:53:59.546Z,2.87
2018-04-15T13:56:27.868Z,5.87
2018-04-15T13:58:56.177Z,3.97
2018-04-15T14:01:24.723Z,2.83
2018-04-15T14:03:53.031Z,1.50
2018-04-15T14:06:21.330Z,1.70
2018-04-15T14:08:49.637Z,1.77
2018-04-15T14:11:17.947Z,1.77
2018-04-15T14:13:46.314Z,1.60
2018-04-15T14:16:14.593Z,1.60
2018-04-15T14:18:42.926Z,1.67
2018-04-15T14:21:11.229Z,2.10
2018-04-15T14:23:39.562Z,2.27
2018-04-15T14:26:07.885Z,2.53
2018-04-15T14:28:37.206Z,2.20
2018-04-15T14:31:05.489Z,2.77
2018-04-15T14:33:33.813Z,2.93
2018-04-15T14:36:02.135Z,3.37
2018-04-15T14:38:30.834Z,2.80
2018-04-15T14:40:59.118Z,5.43
2018-04-15T14:43:27.479Z,1.70
2018-04-15T14:45:55.770Z,3.03
2018-04-15T14:48:24.093Z,2.17
2018-04-15T14:50:52.393Z,2.60
2018-04-15T14:53:20.713Z,2.77
2018-04-15T14:55:49.030Z,2.80
2018-04-15T14:58:17.367Z,3.13
2018-04-15T15:00:45.646Z,1.37
2018-04-15T15:03:13.983Z,2.77
2018-04-15T15:05:42.275Z,22.57
2018-04-15T15:08:10.598Z,4.53
2018-04-15T15:10:38.900Z,6.57
2018-04-15T15:13:07.218Z,3.60
2018-04-15T15:15:35.507Z,4.60
2018-04-15T15:18:03.833Z,5.37
2018-04-15T15:20:32.169Z,4.87
2018-04-15T15:23:00.506Z,4.23
2018-04-15T15:25:28.854Z,17.00
2018-04-15T15:27:57.933Z,3.50
2018-04-15T15:30:26.309Z,6.10
2018-04-15T15:32:54.741Z,6.17
2018-04-15T15:35:23.074Z,27.13
2018-04-15T15:37:51.414Z,194.87
2018-04-15T15:40:19.734Z,128.23
2018-04-15T15:42:48.058Z,120.10
2018-04-15T15:45:16.353Z,87.70
2018-04-15T15:47:44.673Z,65.43
2018-04-15T15:50:13.001Z,51.47
2018-04-15T15:52:41.307Z,53.57
2018-04-15T15:55:09.703Z,45.37
2018-04-15T15:57:38.080Z,35.37
2018-04-15T16:00:07.138Z,39.97
2018-04-15T16:02:35.421Z,42.80
2018-04-15T16:05:04.541Z,36.30
2018-04-15T16:07:33.674Z,26.47
2018-04-15T16:10:02.038Z,36.73
2018-04-15T16:12:30.415Z,21.30
2018-04-15T16:14:58.726Z,20.30
2018-04-15T16:17:27.093Z,21.27
2018-04-15T16:19:56.789Z,16.53
2018-04-15T16:22:25.091Z,24.60
2018-04-15T16:24:53.418Z,20.30
2018-04-15T16:27:22.493Z,18.20
2018-04-15T16:29:50.831Z,16.07
2018-04-15T16:32:31.483Z,13.73
2018-04-15T16:34:59.813Z,10.90
2018-04-15T16:37:28.736Z,9.37
2018-04-15T16:39:57.053Z,10.20
2018-04-15T16:42:25.345Z,6.10
2018-04-15T16:45:16.944Z,9.77
2018-04-15T16:47:45.273Z,9.17
2018-04-15T16:50:13.561Z,8.23
2018-04-15T16:52:41.908Z,9.10
2018-04-15T16:55:10.933Z,9.63
2018-04-15T16:57:40.158Z,8.23
2018-04-15T17:00:08.506Z,9.30
2018-04-15T17:02:36.752Z,7.87
2018-04-15T17:05:05.074Z,8.53
2018-04-15T17:07:34.159Z,9.27
2018-04-15T17:10:02.481Z,13.07
2018-04-15T17:12:30.838Z,5.60
2018-04-15T17:14:59.151Z,6.33
2018-04-15T17:17:27.438Z,7.57
2018-04-15T17:19:55.752Z,8.17
2018-04-15T17:22:24.113Z,7.10
2018-04-15T17:24:52.445Z,9.77
2018-04-15T17:27:21.515Z,5.50
2018-04-15T17:29:49.825Z,8.83
2018-04-15T17:32:18.137Z,7.80
2018-04-15T17:34:46.438Z,7.20
2018-04-15T17:37:14.733Z,7.30
2018-04-15T17:39:43.109Z,7.10
2018-04-15T17:42:11.366Z,10.50
2018-04-15T17:44:39.690Z,5.77
2018-04-15T17:47:07.981Z,7.97
2018-04-15T17:49:36.339Z,5.97
2018-04-15T17:52:04.624Z,5.80
2018-04-15T17:54:33.340Z,7.80
2018-04-15T17:57:01.717Z,6.70
2018-04-15T17:59:30.105Z,8.33
2018-04-15T18:01:58.410Z,5.37
2018-04-15T18:04:26.742Z,6.97
2018-04-15T18:06:55.022Z,5.50
2018-04-15T18:09:23.343Z,5.73
2018-04-15T18:11:51.646Z,5.70
2018-04-15T18:14:19.950Z,4.30
2018-04-15T18:16:48.273Z,5.60
2018-04-15T18:19:16.574Z,7.33
2018-04-15T18:21:44.932Z,10.53
2018-04-15T18:24:13.214Z,6.17
2018-04-15T18:26:41.537Z,6.83
2018-04-15T18:29:09.863Z,5.13
2018-04-15T18:31:38.195Z,4.67
2018-04-15T18:34:07.250Z,5.33
2018-04-15T18:36:35.568Z,5.80
2018-04-15T18:39:04.802Z,3.70
2018-04-15T18:41:33.127Z,2.57
2018-04-15T18:44:01.444Z,4.67
2018-04-15T18:46:29.763Z,3.03
2018-04-15T18:48:58.082Z,3.80
2018-04-15T18:51:27.178Z,6.67
2018-04-15T18:53:56.237Z,3.57
2018-04-15T18:56:24.555Z,5.27
2018-04-15T18:58:53.622Z,7.20
2018-04-15T19:01:21.945Z,3.70
2018-04-15T19:03:50.250Z,2.97
2018-04-15T19:06:18.578Z,3.43
2018-04-15T19:08:46.939Z,2.67
2018-04-15T19:11:30.529Z,4.23
2018-04-15T19:13:58.808Z,2.57
2018-04-15T19:16:27.130Z,5.27
2018-04-15T19:18:55.425Z,5.10
2018-04-15T19:21:23.762Z,4.43
2018-04-15T19:23:52.818Z,3.37
2018-04-15T19:26:21.152Z,5.20
2018-04-15T19:28:49.454Z,7.07
2018-04-15T19:31:17.825Z,3.83
2018-04-15T19:33:46.072Z,2.30
2018-04-15T19:36:14.392Z,3.10
2018-04-15T19:38:42.707Z,2.80
2018-04-15T19:41:11.096Z,3.17
2018-04-15T19:43:40.120Z,3.33
2018-04-15T19:46:08.438Z,3.97
2018-04-15T19:48:36.748Z,3.27
2018-04-15T19:51:05.085Z,2.77
2018-04-15T19:53:33.710Z,3.43
2018-04-15T19:56:02.025Z,4.13
2018-04-15T19:58:30.342Z,3.37
2018-04-15T20:00:59.521Z,4.17
2018-04-15T20:03:28.678Z,2.90
2018-04-15T20:05:57.005Z,4.10
2018-04-15T20:08:25.379Z,2.80
2018-04-15T20:10:53.650Z,2.90
2018-04-15T20:13:21.951Z,3.57
2018-04-15T20:15:56.261Z,4.03
2018-04-15T20:18:24.602Z,2.57
2018-04-15T20:20:52.926Z,2.30
2018-04-15T20:23:21.246Z,2.83
2018-04-15T20:25:49.570Z,2.00
2018-04-15T20:28:17.878Z,2.30
2018-04-15T20:30:46.953Z,2.87
2018-04-15T20:33:15.520Z,2.30
2018-04-15T20:35:44.587Z,1.90
2018-04-15T20:38:12.884Z,1.40
2018-04-15T20:40:41.186Z,4.53
2018-04-15T20:43:09.515Z,3.37
2018-04-15T20:45:37.819Z,2.40
2018-04-15T20:48:06.386Z,2.80
2018-04-15T20:50:34.683Z,2.50
2018-04-15T20:53:03.004Z,2.83
2018-04-15T20:55:31.326Z,1.50
2018-04-15T20:57:59.654Z,2.80
2018-04-15T21:00:27.991Z,1.83
2018-04-15T21:02:56.315Z,2.50
2018-04-15T21:05:24.639Z,1.97
2018-04-15T21:07:52.971Z,2.00
2018-04-15T21:10:21.627Z,2.23
2018-04-15T21:12:50.817Z,3.00
2018-04-15T21:15:19.118Z,3.40
2018-04-15T21:17:47.437Z,1.47
2018-04-15T21:20:15.737Z,1.83
2018-04-15T21:22:44.062Z,3.83
2018-04-15T21:25:12.419Z,2.40
2018-04-15T21:27:40.741Z,2.10
2018-04-15T21:30:09.437Z,2.47
2018-04-15T21:32:38.511Z,1.20
2018-04-15T21:35:06.869Z,1.87
2018-04-15T21:37:35.210Z,1.33
2018-04-15T21:40:03.498Z,1.97
2018-04-15T21:42:31.896Z,1.40
2018-04-15T21:45:01.118Z,1.47
2018-04-15T21:47:44.524Z,3.43
2018-04-15T21:50:12.832Z,3.23
2018-04-15T21:52:41.158Z,1.23
2018-04-15T21:55:09.469Z,6.63
2018-04-15T21:57:37.775Z,1.57
2018-04-15T22:00:06.409Z,2.13
2018-04-15T22:02:34.745Z,3.23
2018-04-15T22:05:03.052Z,3.57
2018-04-15T22:07:32.122Z,4.83
2018-04-15T22:10:00.429Z,6.57
2018-04-15T22:12:28.752Z,2.87
2018-04-15T22:14:57.058Z,2.60
2018-04-15T22:17:25.384Z,5.17
2018-04-15T22:19:53.690Z,3.30
2018-04-15T22:22:21.995Z,1.30
2018-04-15T22:24:50.293Z,2.30
2018-04-15T22:27:18.613Z,3.87
2018-04-15T22:29:46.976Z,1.10
2018-04-15T22:32:15.298Z,1.70
2018-04-15T22:34:43.603Z,2.73
2018-04-15T22:37:11.922Z,2.20
2018-04-15T22:39:40.241Z,1.97
2018-04-15T22:42:08.560Z,2.10
2018-04-15T22:44:37.181Z,1.90
2018-04-15T22:47:05.478Z,3.17
2018-04-15T22:49:33.797Z,1.97
2018-04-15T22:52:02.111Z,1.53
2018-04-15T22:54:30.434Z,1.67
2018-04-15T22:57:13.623Z,1.57
2018-04-15T22:59:41.950Z,1.27
2018-04-15T23:02:11.009Z,1.60
2018-04-15T23:04:39.352Z,1.43
2018-04-15T23:07:07.634Z,1.47
2018-04-15T23:09:35.951Z,2.53
2018-04-15T23:12:04.238Z,2.63
2018-04-15T23:14:32.566Z,2.00
2018-04-15T23:17:00.866Z,1.20
2018-04-15T23:19:29.200Z,1.57
2018-04-15T23:21:58.264Z,2.23
2018-04-15T23:24:26.601Z,2.17
2018-04-15T23:26:54.889Z,1.80
2018-04-15T23:29:23.217Z,1.67
2018-04-15T23:31:51.757Z,2.83
2018-04-15T23:34:20.097Z,1.50
2018-04-15T23:36:49.159Z,2.67
2018-04-15T23:39:17.484Z,2.03
2018-04-15T23:41:46.534Z,2.10
2018-04-15T23:44:14.861Z,2.37
2018-04-15T23:46:43.197Z,1.93
2018-04-15T23:49:21.598Z,2.00
2018-04-15T23:51:49.919Z,2.13
2018-04-15T23:54:18.301Z,2.90
2018-04-15T23:56:52.941Z,1.87
2018-04-15T23:59:25.234Z,1.87
